Terminal Aerodrome Forecast
Issued by NWS

Current Version | Previous Version | Text Only | Print | Product List | Glossary Off
Versions: 1 2 3 4 5 6 7 8 9 10 11 12 13 14 15 16 17 18 19 20 21 22 23

000
FTUS44 KHGX 141721
TAFIAH
TAF
KIAH 141721Z 1418/1524 27004KT P6SM FEW030 OVC200
     FM142100 33006KT P6SM OVC200
     FM150400 36006KT P6SM SCT120 OVC200
     FM151400 02010KT P6SM OVC100=

USA.gov is the U.S. government's official web portal to all federal, state and local government web resources and services.